Time;durP1;ratioP1;P1;durP2;ratioP2;P2;SDS_P1;SDS_P2;PMS_P1;PMS_P2;Temp;Humidity;BMP_temperature;BMP_pressure;BME280_temperature;BME280_humidity;BME280_pressure;Samples;Min_cycle;Max_cycle;Signal;HPM_P1;HPM_P2
2022/02/10 00:18:30;;;;;;;28.00;5.18;;;5.50;99.90;;;4.04;100.00;101468.63;4974381;28;20040;-79
2022/02/10 00:21:11;;;;;;;20.30;4.15;;;5.50;99.90;;;4.06;100.00;101472.09;4978989;28;20050;-79
2022/02/10 00:34:16;;;;;;;30.70;3.83;;;5.50;99.90;;;4.01;100.00;101473.88;4999104;28;20027;-77
2022/02/10 00:42:08;;;;;;;16.15;2.78;;;5.40;99.90;;;3.84;100.00;101479.22;4993571;28;20038;-77
2022/02/10 00:44:34;;;;;;;25.90;3.03;;;5.30;99.90;;;3.79;100.00;101474.03;5000876;28;20052;-76
2022/02/10 00:47:02;;;;;;;24.30;3.53;;;5.30;99.90;;;3.74;100.00;101477.53;5006376;28;20513;-76
2022/02/10 00:49:28;;;;;;;27.00;3.70;;;5.20;99.90;;;3.66;100.00;101472.38;4974927;28;20038;-76
2022/02/10 00:51:55;;;;;;;29.17;3.88;;;5.20;99.90;;;3.62;100.00;101474.13;4985373;28;20076;-77
2022/02/10 00:54:26;;;;;;;25.02;3.95;;;5.10;99.90;;;3.59;100.00;101465.50;5000062;28;20207;-77
2022/02/10 00:56:56;;;;;;;23.73;3.15;;;5.10;99.90;;;3.55;100.00;101462.03;4995176;28;20115;-76
2022/02/10 00:59:34;;;;;;;24.90;3.63;;;5.10;99.90;;;3.56;100.00;101471.56;5011290;28;20030;-76
2022/02/10 01:06:57;;;;;;;31.77;4.95;;;5.10;99.90;;;3.53;100.00;101475.94;5001672;28;20022;-77
2022/02/10 01:12:55;;;;;;;26.27;4.93;;;5.00;99.90;;;3.47;100.00;101463.81;4987626;28;20462;-77
2022/02/10 01:31:51;;;;;;;31.67;5.35;;;4.90;99.90;;;3.36;100.00;101471.66;4982101;28;20045;-77
2022/02/10 01:34:17;;;;;;;33.33;4.30;;;4.90;99.90;;;3.30;100.00;101461.28;4958916;28;20112;-77
2022/02/10 01:36:43;;;;;;;41.63;5.40;;;4.80;99.90;;;3.28;100.00;101456.13;4998393;28;20030;-77
2022/02/10 01:39:09;;;;;;;38.05;5.32;;;4.80;99.90;;;3.26;100.00;101450.03;4970211;28;20336;-76
2022/02/10 02:03:34;;;;;;;43.40;5.47;;;4.90;99.90;;;3.42;100.00;101443.00;5015906;28;20076;-77
2022/02/10 02:06:05;;;;;;;36.90;5.70;;;4.90;99.90;;;3.43;100.00;101434.31;4991242;28;20038;-77
2022/02/10 02:08:35;;;;;;;38.53;5.22;;;4.90;99.90;;;3.45;100.00;101429.97;4983661;28;20715;-76
2022/02/10 02:11:02;;;;;;;30.55;5.20;;;5.00;99.90;;;3.47;100.00;101424.75;5001469;28;22711;-76
2022/02/10 02:13:29;;;;;;;46.30;5.43;;;5.00;99.90;;;3.48;100.00;101437.78;5001586;28;21060;-77
2022/02/10 02:15:55;;;;;;;28.67;4.93;;;5.00;99.90;;;3.53;100.00;101437.75;4985670;28;20415;-76
2022/02/10 02:18:22;;;;;;;27.90;5.00;;;5.10;99.90;;;3.55;100.00;101440.34;4982288;28;20558;-77
2022/02/10 02:20:52;;;;;;;36.90;5.30;;;5.10;99.90;;;3.59;100.00;101426.44;4990201;28;20447;-76
2022/02/10 02:23:21;;;;;;;36.92;6.07;;;5.10;99.90;;;3.61;100.00;101429.91;5014661;28;20038;-76
2022/02/10 02:25:53;;;;;;;33.17;4.97;;;5.10;99.90;;;3.63;100.00;101428.16;4990439;28;20063;-76
2022/02/10 02:28:22;;;;;;;47.35;5.22;;;5.10;99.90;;;3.66;100.00;101426.38;4999471;28;20048;-76
2022/02/10 02:31:02;;;;;;;38.38;7.10;;;5.10;99.90;;;3.68;100.00;101414.19;5005013;28;20032;-77
2022/02/10 03:06:15;;;;;;;37.67;6.30;;;5.30;99.90;;;3.87;100.00;101388.03;4999869;28;20029;-76
2022/02/10 03:08:46;;;;;;;42.17;7.00;;;5.30;99.90;;;3.86;100.00;101386.28;4978618;28;20042;-76
2022/02/10 03:11:14;;;;;;;29.08;5.90;;;5.30;99.90;;;3.85;100.00;101385.41;4995504;28;20473;-77
2022/02/10 03:13:49;;;;;;;36.88;5.75;;;5.30;99.90;;;3.87;100.00;101388.88;4976402;28;20034;-76
2022/02/10 03:19:06;;;;;;;25.00;5.18;;;5.30;99.90;;;3.87;100.00;101383.66;4991641;28;20489;-76
2022/02/10 04:00:11;;;;;;;29.52;6.97;;;5.40;99.90;;;3.94;100.00;101337.56;4997745;28;20505;-77
2022/02/10 04:11:02;;;;;;;42.03;7.45;;;5.40;99.90;;;3.95;100.00;101325.41;4988631;28;20180;-76
2022/02/10 04:13:41;;;;;;;43.35;8.45;;;5.40;99.90;;;3.96;100.00;101334.97;4990748;28;20049;-76
2022/02/10 04:16:19;;;;;;;48.90;8.10;;;5.40;99.90;;;3.96;100.00;101330.59;5002095;28;20125;-76
2022/02/10 04:21:34;;;;;;;30.95;7.85;;;5.40;99.90;;;4.00;100.00;101340.13;4988509;28;20026;-76
2022/02/10 04:43:31;;;;;;;48.35;11.05;;;5.60;99.90;;;4.08;100.00;101319.19;4984265;28;20521;-76
2022/02/10 05:04:27;;;;;;;51.22;12.13;;;5.60;99.90;;;4.11;100.00;101293.09;5015899;28;20164;-76
2022/02/10 05:07:22;;;;;;;46.33;12.75;;;5.60;99.90;;;4.07;100.00;101305.28;5005698;28;20417;-76
2022/02/10 05:23:22;;;;;;;56.60;13.38;;;5.60;99.90;;;4.16;100.00;101286.09;5018514;28;20036;-76
2022/02/10 05:34:15;;;;;;;47.78;13.40;;;5.70;99.90;;;4.24;100.00;101280.81;4945109;28;20095;-77
2022/02/10 05:36:43;;;;;;;42.92;13.98;;;5.70;99.90;;;4.24;100.00;101273.84;4982962;28;20029;-76
2022/02/10 05:39:22;;;;;;;54.88;13.90;;;5.70;99.90;;;4.24;100.00;101266.03;4946566;28;20037;-76
2022/02/10 05:57:31;;;;;;;49.63;14.25;;;5.90;99.90;;;4.41;100.00;101264.97;4987088;28;20986;-77
2022/02/10 06:52:15;;;;;;;60.45;18.48;;;5.90;99.90;;;4.55;100.00;101263.03;5013692;28;20100;-77
2022/02/10 07:08:18;;;;;;;69.18;19.55;;;6.00;99.90;;;4.57;100.00;101265.63;4988619;28;20020;-76
2022/02/10 07:14:10;;;;;;;68.88;19.00;;;6.00;99.90;;;4.65;100.00;101241.16;4977702;28;20021;-77
2022/02/10 07:17:08;;;;;;;72.03;18.30;;;6.10;99.90;;;4.71;100.00;101238.47;4972781;28;20120;-77
2022/02/10 08:57:10;;;;;;;12.98;2.60;;;6.30;99.90;;;5.08;100.00;101216.19;4970698;28;20057;-77
2022/02/10 09:02:27;;;;;;;9.15;2.00;;;6.40;99.90;;;5.10;100.00;101209.19;4973119;28;20445;-77
2022/02/10 09:59:33;;;;;;;16.27;2.83;;;6.20;99.90;;;4.74;100.00;101174.94;4985303;28;20401;-77
2022/02/10 10:02:18;;;;;;;13.38;2.83;;;6.20;99.90;;;4.70;100.00;101168.91;4986448;28;20100;-77
2022/02/10 10:05:06;;;;;;;11.45;2.38;;;6.20;99.90;;;4.64;100.00;101179.41;4967807;28;20029;-77
2022/02/10 10:52:21;;;;;;;12.38;1.70;;;6.30;99.90;;;4.92;100.00;101114.66;4973384;28;20015;-77
2022/02/10 10:57:27;;;;;;;14.45;1.80;;;6.40;99.90;;;5.02;100.00;101120.56;4975361;28;20037;-77
2022/02/10 11:00:24;;;;;;;11.77;1.55;;;6.40;99.90;;;5.05;100.00;101117.88;4963157;28;20035;-76
2022/02/10 11:37:09;;;;;;;10.35;1.10;;;6.60;99.90;;;5.26;100.00;101085.31;5005161;28;20607;-77
2022/02/10 11:39:47;;;;;;;8.10;1.50;;;6.70;99.90;;;5.33;100.00;101088.66;4993268;28;20101;-77
2022/02/10 14:16:26;;;;;;;7.05;2.30;;;7.50;99.90;;;6.26;100.00;101036.16;5003273;28;20178;-77
2022/02/10 14:20:57;;;;;;;9.82;2.88;;;7.50;99.90;;;6.23;100.00;101038.03;4984157;28;20083;-77
2022/02/10 14:26:05;;;;;;;8.45;2.13;;;7.60;99.90;;;6.23;100.00;101046.72;5006522;28;20083;-77
2022/02/10 14:28:31;;;;;;;6.68;2.50;;;7.50;99.90;;;6.21;100.00;101043.28;4961808;28;20426;-76
2022/02/10 14:31:04;;;;;;;8.88;2.92;;;7.50;99.90;;;6.21;100.00;101047.66;5009402;28;20444;-77
2022/02/10 14:33:35;;;;;;;6.78;2.90;;;7.50;99.90;;;6.18;100.00;101040.75;4985761;28;20034;-77
2022/02/10 14:36:10;;;;;;;13.00;2.83;;;7.50;99.90;;;6.14;100.00;101044.31;4991285;28;20473;-77
2022/02/10 15:17:19;;;;;;;14.98;4.68;;;7.30;99.90;;;5.85;100.00;101058.88;4999163;28;20123;-77
2022/02/10 15:50:04;;;;;;;83.47;36.25;;;6.70;99.90;;;5.24;100.00;101079.25;4989902;28;20054;-76
2022/02/10 15:52:31;;;;;;;88.85;38.13;;;6.70;99.90;;;5.18;100.00;101075.91;4993365;28;20088;-76
2022/02/10 16:17:07;;;;;;;14.27;5.60;;;6.40;99.90;;;4.92;100.00;101092.88;4962150;28;20113;-76
2022/02/10 16:19:36;;;;;;;9.90;6.15;;;6.40;99.90;;;4.87;100.00;101089.50;5000893;28;20026;-77
2022/02/10 16:22:21;;;;;;;14.10;5.38;;;6.30;99.90;;;4.87;100.00;101086.91;4969327;28;20484;-76
2022/02/10 16:24:59;;;;;;;18.52;6.20;;;6.30;99.90;;;4.85;100.00;101097.34;4994380;28;20013;-77
2022/02/10 16:27:28;;;;;;;10.82;5.35;;;6.30;99.90;;;4.82;100.00;101089.59;5007012;28;20096;-76
2022/02/10 16:30:04;;;;;;;20.58;5.75;;;6.20;99.90;;;4.81;100.00;101097.44;4939065;28;20533;-76
2022/02/10 16:32:31;;;;;;;15.77;5.78;;;6.20;99.90;;;4.76;100.00;101100.13;4982183;28;20056;-77
2022/02/10 16:35:01;;;;;;;11.93;5.38;;;6.20;99.90;;;4.75;100.00;101098.38;4988021;28;20021;-77
2022/02/10 16:37:27;;;;;;;16.00;5.32;;;6.20;99.90;;;4.71;100.00;101099.34;4973659;28;20044;-77
2022/02/10 16:39:53;;;;;;;19.40;6.95;;;6.10;99.90;;;4.68;100.00;101096.78;4968949;28;20026;-76
2022/02/10 16:42:19;;;;;;;22.15;6.97;;;6.10;99.90;;;4.63;100.00;101099.47;4979832;28;20122;-77
2022/02/10 16:44:47;;;;;;;13.25;6.10;;;6.10;99.90;;;4.62;100.00;101095.13;4982975;28;20085;-76
2022/02/10 16:47:15;;;;;;;12.90;5.28;;;6.10;99.90;;;4.60;100.00;101096.03;4990467;28;20182;-76
2022/02/10 16:49:49;;;;;;;13.68;6.15;;;6.10;99.90;;;4.60;100.00;101104.75;4945564;28;20045;-77
2022/02/10 16:52:22;;;;;;;18.23;6.60;;;6.10;99.90;;;4.59;100.00;101103.00;5016006;28;20683;-77
2022/02/10 16:54:51;;;;;;;13.23;5.32;;;6.10;99.90;;;4.60;100.00;101102.13;4947454;28;20066;-77
2022/02/10 16:57:40;;;;;;;11.52;5.63;;;6.10;99.90;;;4.61;100.00;101101.22;4983449;28;20048;-77
2022/02/10 17:19:15;;;;;;;21.27;7.38;;;6.10;99.90;;;4.66;100.00;101117.66;5004484;28;20430;-77
2022/02/10 17:32:27;;;;;;;16.45;7.80;;;6.20;99.90;;;4.83;100.00;101112.16;5009221;28;20022;-77
2022/02/10 17:41:28;;;;;;;19.40;11.07;;;6.30;99.90;;;4.92;100.00;101119.88;4970613;28;20026;-77
2022/02/10 17:45:50;;;;;;;8.95;1.88;;;5.50;99.90;;;3.48;100.00;101169.59;4982530;28;20053;-76
2022/02/10 17:53:48;;;;;;;16.00;2.35;;;4.70;99.90;;;2.92;100.00;101183.97;4985249;28;20039;-77
2022/02/10 17:56:14;;;;;;;10.65;1.23;;;4.60;99.90;;;2.63;100.00;101177.22;4964879;28;21132;-77
2022/02/10 17:58:40;;;;;;;12.60;1.35;;;4.30;99.90;;;2.39;100.00;101169.59;4952700;28;20029;-77
2022/02/10 18:01:11;;;;;;;15.48;1.80;;;4.20;99.90;;;2.36;100.00;101178.28;4983489;28;20029;-77
2022/02/10 18:03:37;;;;;;;10.93;1.63;;;4.20;99.90;;;2.45;100.00;101165.22;4982078;28;20468;-77
2022/02/10 18:08:44;;;;;;;12.85;1.70;;;4.20;99.90;;;2.56;100.00;101165.16;4959417;28;20033;-76
2022/02/10 18:14:01;;;;;;;13.70;2.15;;;4.10;99.90;;;2.42;100.00;101159.19;4985215;28;20025;-76
2022/02/10 18:16:39;;;;;;;9.70;1.83;;;4.00;99.90;;;2.37;100.00;101167.00;5003775;28;20401;-76
2022/02/10 19:02:07;;;;;;;15.40;3.72;;;4.30;99.90;;;2.87;100.00;101183.13;4987970;28;20107;-76
2022/02/10 19:07:33;;;;;;;13.52;4.32;;;4.30;99.90;;;2.88;100.00;101192.69;4965011;28;20555;-77
2022/02/10 19:10:06;;;;;;;13.38;4.25;;;4.40;99.90;;;2.87;100.00;101193.53;4948578;28;20045;-79
2022/02/10 19:12:42;;;;;;;17.23;5.05;;;4.40;99.90;;;2.85;100.00;101190.09;4922690;28;20021;-77
2022/02/10 19:15:23;;;;;;;37.97;5.28;;;4.30;99.90;;;2.82;100.00;101193.56;4975765;28;20028;-79
2022/02/10 19:17:52;;;;;;;23.90;6.00;;;4.30;99.90;;;2.78;100.00;101199.66;4943613;28;20033;-80
2022/02/10 19:20:23;;;;;;;21.80;6.22;;;4.30;99.90;;;2.77;100.00;101195.34;4915700;28;20172;-80
2022/02/10 19:22:50;;;;;;;22.63;6.43;;;4.30;99.90;;;2.73;100.00;101195.38;4928807;28;20103;-79
2022/02/10 19:25:16;;;;;;;20.40;6.93;;;4.20;99.90;;;2.71;100.00;101199.72;4931575;28;20415;-79
2022/02/10 19:27:43;;;;;;;25.45;7.28;;;4.20;99.90;;;2.66;100.00;101195.44;4963529;28;21314;-79
2022/02/10 19:30:15;;;;;;;26.27;7.78;;;4.20;99.90;;;2.66;100.00;101202.38;4939859;28;20466;-78
2022/02/10 19:32:48;;;;;;;28.20;8.52;;;4.20;99.90;;;2.63;100.00;101203.22;4976367;28;20545;-79
2022/02/10 19:35:23;;;;;;;22.92;8.05;;;4.60;99.90;;;2.60;100.00;101205.00;4956152;28;20036;-79
2022/02/10 19:37:56;;;;;;;26.85;7.60;;;4.10;99.90;;;2.59;100.00;101203.25;4967113;28;20044;-79
2022/02/10 19:40:27;;;;;;;22.48;7.63;;;4.20;99.90;;;2.58;100.00;101204.16;4957933;28;20484;-81
2022/02/10 19:42:55;;;;;;;25.38;7.07;;;4.10;99.90;;;2.57;100.00;101200.69;4963240;28;20029;-78
2022/02/10 19:45:23;;;;;;;24.65;7.65;;;4.10;99.90;;;2.57;100.00;101203.28;4953999;28;20037;-79
2022/02/10 19:47:53;;;;;;;18.40;7.05;;;4.10;99.90;;;2.57;100.00;101197.19;4924505;28;20034;-80
2022/02/10 19:50:28;;;;;;;22.20;6.88;;;4.10;99.90;;;2.57;100.00;101199.81;4956284;28;20065;-78
2022/02/10 19:53:03;;;;;;;36.90;7.43;;;4.10;99.90;;;2.58;100.00;101204.16;4990093;28;20489;-80
2022/02/10 19:55:32;;;;;;;21.90;6.90;;;4.10;99.90;;;2.56;100.00;101214.53;4945436;28;20486;-80
2022/02/10 19:58:05;;;;;;;28.90;7.20;;;4.10;99.90;;;2.56;100.00;101211.09;4934470;28;20025;-80
2022/02/10 20:00:39;;;;;;;25.88;7.93;;;4.10;99.90;;;2.55;100.00;101210.22;4958684;28;20033;-79
2022/02/10 20:03:24;;;;;;;19.65;6.38;;;4.10;99.90;;;2.52;100.00;101210.22;4951169;28;20117;-79
2022/02/10 20:05:51;;;;;;;23.75;6.93;;;4.00;99.90;;;2.49;100.00;101212.88;4971249;28;20497;-80
2022/02/10 20:08:25;;;;;;;23.42;6.03;;;4.00;99.90;;;2.49;100.00;101205.06;4953806;28;20036;-80
2022/02/10 20:10:55;;;;;;;27.13;6.63;;;4.00;99.90;;;2.48;100.00;101205.91;4935262;28;20044;-79
2022/02/10 20:13:27;;;;;;;17.90;5.55;;;4.00;99.90;;;2.47;100.00;101183.41;4917774;28;24974;-79
2022/02/10 20:15:54;;;;;;;22.48;5.38;;;4.00;99.90;;;2.45;100.00;101198.16;4976501;28;20056;-77
2022/02/10 20:18:22;;;;;;;23.40;5.38;;;4.00;99.90;;;2.49;100.00;101199.00;4982428;28;20024;-80
2022/02/10 20:20:53;;;;;;;26.48;5.05;;;4.00;99.90;;;2.49;100.00;101186.88;4953075;28;20071;-76
2022/02/10 20:23:24;;;;;;;23.10;4.95;;;4.00;99.90;;;2.45;100.00;101205.94;4956144;28;20033;-76
2022/02/10 20:25:51;;;;;;;23.92;4.30;;;4.00;99.90;;;2.42;100.00;101198.19;4988778;28;20022;-76
2022/02/10 20:28:19;;;;;;;15.02;4.07;;;4.00;99.90;;;2.39;100.00;101205.97;5002770;28;20075;-80
2022/02/10 20:30:53;;;;;;;22.75;3.60;;;3.90;99.90;;;2.37;100.00;101202.53;4968814;28;20111;-80
2022/02/10 20:33:22;;;;;;;18.90;3.63;;;3.90;99.90;;;2.34;100.00;101207.75;4967980;28;20033;-78
2022/02/10 20:35:55;;;;;;;12.40;3.03;;;3.90;99.90;;;2.30;100.00;101213.81;4932707;28;20523;-77
2022/02/10 20:38:22;;;;;;;21.42;3.80;;;3.80;99.90;;;2.26;100.00;101207.78;4970193;28;20017;-82
2022/02/10 20:40:58;;;;;;;27.17;4.00;;;3.80;99.90;;;2.23;100.00;101213.84;4988921;28;20582;-80
2022/02/10 20:43:25;;;;;;;21.38;3.15;;;3.70;99.90;;;2.17;100.00;101213.88;4974532;28;24401;-81
2022/02/10 20:45:56;;;;;;;25.27;3.95;;;3.70;99.90;;;2.14;100.00;101219.09;4980436;28;20044;-81
2022/02/10 20:48:27;;;;;;;20.38;3.58;;;3.70;99.90;;;2.10;100.00;101217.38;4981199;28;20033;-80
2022/02/10 20:50:56;;;;;;;21.00;3.50;;;3.60;99.90;;;2.09;100.00;101218.22;4988641;28;20497;-81
2022/02/10 20:53:27;;;;;;;25.92;3.80;;;3.70;99.90;;;2.05;100.00;101219.09;4954838;28;20043;-83
2022/02/10 20:56:00;;;;;;;23.42;4.38;;;3.60;99.90;;;2.06;100.00;101231.25;4910382;28;20088;-82
2022/02/10 20:58:29;;;;;;;16.48;4.25;;;3.60;99.90;;;2.04;100.00;101226.03;4924532;28;20199;-80
2022/02/10 21:01:01;;;;;;;25.52;4.47;;;3.60;99.90;;;2.01;100.00;101220.88;4917054;28;20104;-81
2022/02/10 21:03:30;;;;;;;21.17;4.80;;;3.60;99.90;;;2.01;100.00;101223.47;4959971;28;21281;-81
2022/02/10 21:06:20;;;;;;;27.45;4.75;;;3.60;99.90;;;2.00;100.00;101224.31;4945829;28;20069;-82
2022/02/10 21:09:04;;;;;;;26.02;4.65;;;3.50;99.90;;;2.00;100.00;101226.06;4960290;28;20026;-83
2022/02/10 21:11:36;;;;;;;23.23;4.28;;;3.50;99.90;;;1.99;100.00;101226.94;4919467;28;20516;-80
2022/02/10 21:14:06;;;;;;;21.98;4.10;;;3.50;99.90;;;1.96;100.00;101227.78;4931514;28;20033;-82
2022/02/10 21:16:35;;;;;;;33.28;4.50;;;3.50;99.90;;;1.95;100.00;101227.81;4972136;28;20022;-81
2022/02/10 21:19:04;;;;;;;20.48;4.45;;;3.50;99.90;;;1.95;100.00;101227.81;4966033;28;20025;-83
2022/02/10 21:21:30;;;;;;;24.80;4.38;;;3.50;99.90;;;1.93;100.00;101235.63;4979804;28;20041;-79
2022/02/10 21:24:01;;;;;;;26.17;4.15;;;3.50;99.90;;;1.93;100.00;101235.63;4971265;28;20049;-81
2022/02/10 21:26:40;;;;;;;26.85;4.18;;;3.50;99.90;;;1.93;100.00;101229.56;4947388;28;20032;-81
2022/02/10 21:29:07;;;;;;;20.45;4.07;;;3.50;99.90;;;1.92;100.00;101220.03;4961254;28;20029;-81
2022/02/10 21:31:44;;;;;;;39.80;5.13;;;3.50;99.90;;;1.92;100.00;101220.03;4951701;28;20038;-77
2022/02/10 21:34:19;;;;;;;21.45;3.92;;;3.50;99.90;;;1.91;100.00;101223.50;4974949;28;20023;-77
2022/02/10 21:53:40;;;;;;;27.27;3.80;;;3.30;99.90;;;1.73;100.00;101225.28;4965436;28;20391;-82
2022/02/10 22:19:45;;;;;;;21.58;2.42;;;3.20;99.90;;;1.60;100.00;101226.19;4960125;28;20028;-80
2022/02/10 22:22:18;;;;;;;30.67;3.15;;;3.20;99.90;;;1.56;100.00;101224.44;4970467;28;20064;-84
2022/02/10 22:24:44;;;;;;;24.48;3.03;;;3.20;99.90;;;1.54;100.00;101218.41;4948709;28;20048;-80
2022/02/10 22:27:11;;;;;;;25.60;2.75;;;3.10;99.90;;;1.50;100.00;101217.53;4918261;28;20030;-81
2022/02/10 22:29:44;;;;;;;20.63;2.47;;;3.10;99.90;;;1.47;100.00;101227.03;4934207;28;20456;-83
2022/02/10 22:32:24;;;;;;;20.23;3.05;;;3.10;99.90;;;1.42;100.00;101219.25;4976530;28;20034;-81
2022/02/10 22:34:54;;;;;;;26.55;2.83;;;3.10;99.90;;;1.37;100.00;101218.41;4954441;28;20033;-81
2022/02/10 22:37:21;;;;;;;29.92;2.75;;;3.00;99.90;;;1.36;100.00;101222.75;4967559;28;20087;-82
2022/02/10 22:39:54;;;;;;;19.33;2.60;;;3.00;99.90;;;1.34;100.00;101216.69;4908650;28;20109;-81
2022/02/10 22:42:25;;;;;;;16.27;2.30;;;3.00;99.90;;;1.33;100.00;101222.72;4906873;28;20025;-82
2022/02/10 22:44:59;;;;;;;20.13;2.30;;;2.90;99.90;;;1.32;100.00;101217.53;4946482;28;20103;-82
2022/02/10 22:47:25;;;;;;;25.42;3.20;;;2.90;99.90;;;1.28;100.00;101218.44;4931581;28;20117;-83
2022/02/10 22:49:51;;;;;;;21.10;2.75;;;2.90;99.90;;;1.27;100.00;101209.75;4910182;28;20042;-83
2022/02/10 22:52:17;;;;;;;22.13;2.85;;;2.90;99.90;;;1.24;100.00;101220.16;4957811;28;20033;-81
2022/02/10 22:54:48;;;;;;;31.70;3.05;;;2.90;99.90;;;1.22;100.00;101208.91;4997147;28;20040;-83
2022/02/10 22:57:14;;;;;;;21.00;3.70;;;2.80;99.90;;;1.19;100.00;101222.75;4945068;28;20048;-83
2022/02/10 22:59:40;;;;;;;27.90;4.32;;;2.80;99.90;;;1.16;100.00;101220.13;4957221;28;20049;-82
2022/02/10 23:02:06;;;;;;;29.35;3.13;;;2.80;99.90;;;1.13;100.00;101216.69;4917290;28;20026;-84
2022/02/10 23:04:32;;;;;;;14.07;3.53;;;2.80;99.90;;;1.10;100.00;101214.09;4918261;28;20569;-80
2022/02/10 23:07:09;;;;;;;29.45;3.30;;;2.70;99.90;;;1.07;100.00;101217.53;4961021;28;20018;-81
2022/02/10 23:09:46;;;;;;;20.55;3.33;;;2.70;99.90;;;1.07;100.00;101211.50;4924984;28;20044;-81
2022/02/10 23:12:12;;;;;;;26.67;2.70;;;2.70;99.90;;;1.06;100.00;101208.06;4946697;28;20619;-81
2022/02/10 23:14:38;;;;;;;27.45;2.97;;;2.70;99.90;;;1.07;100.00;101208.91;4945631;28;20037;-82
2022/02/10 23:17:04;;;;;;;28.27;2.90;;;2.70;99.90;;;1.03;100.00;101219.25;4917643;28;20036;-82
2022/02/10 23:19:38;;;;;;;27.42;3.60;;;2.70;99.90;;;1.05;100.00;101211.50;4951377;28;20572;-82
2022/02/10 23:22:05;;;;;;;22.52;2.50;;;2.70;99.90;;;1.05;100.00;101214.09;4928291;28;20022;-82
2022/02/10 23:24:31;;;;;;;16.67;2.85;;;2.60;99.90;;;1.02;100.00;101209.78;4919921;28;20088;-80
2022/02/10 23:26:57;;;;;;;25.92;3.03;;;2.60;99.90;;;1.00;100.00;101218.41;4918372;28;20092;-81
2022/02/10 23:29:32;;;;;;;22.52;3.13;;;2.60;99.90;;;0.97;100.00;101221.00;4962199;28;20397;-82
2022/02/10 23:32:00;;;;;;;19.27;2.92;;;2.60;99.90;;;0.92;100.00;101222.72;4953732;28;20439;-80
2022/02/10 23:34:32;;;;;;;22.45;4.18;;;2.50;99.90;;;0.86;100.00;101218.38;4940593;28;20540;-80
2022/02/10 23:36:58;;;;;;;28.67;2.92;;;2.50;99.90;;;0.81;100.00;101214.94;4944483;28;20021;-82
2022/02/10 23:42:07;;;;;;;24.15;2.88;;;2.40;99.90;;;0.76;100.00;101221.84;4950970;28;20477;-81
2022/02/10 23:44:43;;;;;;;25.08;3.10;;;;;;;0.72;100.00;101209.75;4962885;28;20447;-82
2022/02/10 23:47:15;;;;;;;22.00;3.10;;;2.30;99.90;;;0.69;100.00;101218.38;4911488;28;20026;-82
2022/02/10 23:49:51;;;;;;;23.17;3.35;;;2.40;99.90;;;0.65;100.00;101215.75;4913113;28;20053;-82
2022/02/10 23:52:24;;;;;;;23.80;2.67;;;2.30;99.90;;;0.64;100.00;101229.59;4932673;28;20382;-83
2022/02/10 23:54:55;;;;;;;22.65;2.75;;;2.30;99.90;;;0.59;100.00;101227.84;4918910;28;20114;-80
2022/02/10 23:57:39;;;;;;;19.40;2.75;;;2.30;99.90;;;0.58;100.00;101215.78;4926455;28;20127;-82
